Time;durP1;ratioP1;P1;durP2;ratioP2;P2;SDS_P1;SDS_P2;PMS_P1;PMS_P2;Temp;Humidity;BMP_temperature;BMP_pressure;BME280_temperature;BME280_humidity;BME280_pressure;Samples;Min_cycle;Max_cycle;Signal;HPM_P1;HPM_P2
2023/09/24 00:00:41;;;;;;;5.27;3.87;;;10.80;31.20;;;;;;5026516;28;20978;-52
2023/09/24 00:03:08;;;;;;;5.37;4.10;;;10.80;34.00;;;;;;5030765;28;20454;-51
2023/09/24 00:05:40;;;;;;;4.77;4.27;;;10.70;32.90;;;;;;5029862;28;20461;-53
2023/09/24 00:08:06;;;;;;;11.60;4.13;;;10.70;31.70;;;;;;5029563;28;20900;-53
2023/09/24 00:10:33;;;;;;;4.90;4.07;;;10.70;29.60;;;;;;5032846;28;20459;-51
2023/09/24 00:12:59;;;;;;;6.20;3.67;;;10.70;31.50;;;;;;5031216;28;20454;-53
2023/09/24 00:15:28;;;;;;;7.23;3.70;;;10.70;27.40;;;;;;5028136;28;20552;-53
2023/09/24 00:17:54;;;;;;;5.30;3.87;;;10.60;26.10;;;;;;5027662;28;21002;-51
2023/09/24 00:20:21;;;;;;;5.63;3.80;;;10.60;26.70;;;;;;5029550;28;20455;-54
2023/09/24 00:22:48;;;;;;;7.63;4.13;;;10.60;27.20;;;;;;5029869;28;20467;-52
2023/09/24 00:25:15;;;;;;;4.10;3.80;;;10.60;28.60;;;;;;5030661;28;20513;-52
2023/09/24 00:27:41;;;;;;;3.60;3.30;;;10.50;28.20;;;;;;5029853;28;20482;-52
2023/09/24 00:30:09;;;;;;;5.10;3.80;;;10.50;26.00;;;;;;5030995;28;20473;-53
2023/09/24 00:32:37;;;;;;;3.90;3.53;;;10.50;22.20;;;;;;5027871;28;20832;-53
2023/09/24 00:35:05;;;;;;;4.07;3.50;;;10.60;74.40;;;;;;5027822;28;20978;-52
2023/09/24 00:37:33;;;;;;;3.30;3.10;;;10.50;23.80;;;;;;5029542;28;20553;-53
2023/09/24 00:40:00;;;;;;;4.57;3.10;;;10.40;26.00;;;;;;5031068;28;20564;-52
2023/09/24 00:42:28;;;;;;;4.23;3.30;;;10.40;26.00;;;;;;5032040;28;21020;-54
2023/09/24 00:44:55;;;;;;;5.20;3.30;;;10.40;80.20;;;;;;5029478;28;20462;-54
2023/09/24 00:47:22;;;;;;;5.20;3.37;;;10.40;23.70;;;;;;5036107;28;20531;-51
2023/09/24 00:49:51;;;;;;;7.90;4.00;;;10.40;24.20;;;;;;5028326;28;20836;-52
2023/09/24 00:52:18;;;;;;;4.57;3.40;;;10.30;25.30;;;;;;5028313;28;20964;-51
2023/09/24 00:54:45;;;;;;;4.67;3.30;;;10.30;23.70;;;;;;5030469;28;20462;-51
2023/09/24 00:57:12;;;;;;;2.73;2.53;;;10.30;22.70;;;;;;5035511;28;20513;-53
2023/09/24 00:59:39;;;;;;;6.27;3.57;;;10.20;21.00;;;;;;5029863;28;20458;-51
2023/09/24 01:02:07;;;;;;;4.10;3.00;;;10.30;73.20;;;;;;5029627;28;20467;-52
2023/09/24 01:04:35;;;;;;;4.43;3.47;;;10.20;77.90;;;;;;5030453;28;20459;-53
2023/09/24 01:07:03;;;;;;;5.07;3.50;;;10.20;90.00;;;;;;5030181;28;20486;-53
2023/09/24 01:09:29;;;;;;;8.73;3.17;;;10.20;86.30;;;;;;5032136;28;20465;-53
2023/09/24 01:11:57;;;;;;;3.30;3.00;;;10.20;99.90;;;;;;5034420;28;20455;-52
2023/09/24 01:14:25;;;;;;;3.77;3.40;;;10.30;99.90;;;;;;5034758;28;20453;-51
2023/09/24 01:16:51;;;;;;;5.13;3.43;;;10.30;99.90;;;;;;5032523;28;20545;-52
2023/09/24 01:19:18;;;;;;;4.00;2.97;;;10.20;99.90;;;;;;5034024;28;20450;-52
2023/09/24 01:21:46;;;;;;;3.40;3.17;;;10.20;99.90;;;;;;5031785;28;20462;-52
2023/09/24 01:24:14;;;;;;;3.60;3.30;;;10.20;99.90;;;;;;5030294;28;20482;-53
2023/09/24 01:26:41;;;;;;;3.47;3.00;;;10.30;99.90;;;;;;5030769;28;20483;-51
2023/09/24 01:29:11;;;;;;;4.47;3.43;;;10.20;99.90;;;;;;5033397;28;20941;-53
2023/09/24 01:31:38;;;;;;;3.47;3.17;;;10.20;99.90;;;;;;5032838;28;20459;-52
2023/09/24 01:34:08;;;;;;;5.53;3.30;;;10.20;99.90;;;;;;5036310;28;20454;-53
2023/09/24 01:36:35;;;;;;;4.80;2.60;;;10.20;99.90;;;;;;5030690;28;20529;-52
2023/09/24 01:39:02;;;;;;;4.53;3.60;;;10.10;99.90;;;;;;5033356;28;20454;-53
2023/09/24 01:41:31;;;;;;;4.40;3.20;;;10.20;99.90;;;;;;5033362;28;20458;-52
2023/09/24 01:43:58;;;;;;;7.13;4.10;;;10.20;99.90;;;;;;5033144;28;20466;-51
2023/09/24 01:46:25;;;;;;;5.57;3.60;;;10.10;99.90;;;;;;5031451;28;20536;-53
2023/09/24 01:48:54;;;;;;;3.40;3.00;;;10.10;99.90;;;;;;5033517;28;20454;-53
2023/09/24 01:51:21;;;;;;;4.10;3.47;;;10.10;99.90;;;;;;5027831;28;22504;-52
2023/09/24 01:53:48;;;;;;;3.50;3.20;;;10.10;99.90;;;;;;5031988;28;20520;-51
2023/09/24 01:56:17;;;;;;;4.60;3.20;;;10.10;99.90;;;;;;5032190;28;20475;-53
2023/09/24 01:58:46;;;;;;;3.67;2.90;;;10.10;99.90;;;;;;5032728;28;20491;-50
2023/09/24 02:01:13;;;;;;;5.63;3.30;;;10.10;99.90;;;;;;5032035;28;20932;-53
2023/09/24 02:03:41;;;;;;;5.73;3.30;;;10.10;99.90;;;;;;5034656;28;20466;-51
2023/09/24 02:06:08;;;;;;;4.27;3.23;;;10.10;99.90;;;;;;5032053;28;20490;-51
2023/09/24 02:08:34;;;;;;;3.27;3.07;;;10.00;99.90;;;;;;5032167;28;20485;-53
2023/09/24 02:11:02;;;;;;;4.10;3.20;;;10.00;99.90;;;;;;5029583;28;20459;-52
2023/09/24 02:13:28;;;;;;;9.20;2.77;;;10.00;99.90;;;;;;5033440;28;20447;-52
2023/09/24 02:15:56;;;;;;;3.67;3.37;;;10.10;99.90;;;;;;5031792;28;20929;-52
2023/09/24 02:18:24;;;;;;;3.47;3.17;;;10.10;99.90;;;;;;5032080;28;20479;-52
2023/09/24 02:20:52;;;;;;;4.67;2.67;;;10.10;99.90;;;;;;5032553;28;20462;-52
2023/09/24 02:23:18;;;;;;;3.13;2.93;;;10.10;99.90;;;;;;5030141;28;20459;-53
2023/09/24 02:25:46;;;;;;;6.57;3.77;;;10.10;99.90;;;;;;5030198;28;20898;-52
2023/09/24 02:28:12;;;;;;;4.23;3.23;;;10.10;99.90;;;;;;5036922;28;20455;-52
2023/09/24 02:30:39;;;;;;;5.93;4.10;;;10.10;99.90;;;;;;5032873;28;20516;-53
2023/09/24 02:33:07;;;;;;;3.77;3.33;;;10.10;99.90;;;;;;5035585;28;20447;-52
2023/09/24 02:35:34;;;;;;;6.53;4.27;;;10.10;99.90;;;;;;5037834;28;20451;-52
2023/09/24 02:38:01;;;;;;;7.03;4.10;;;10.10;99.90;;;;;;5034232;28;20487;-51
2023/09/24 02:40:27;;;;;;;4.03;3.00;;;10.00;99.90;;;;;;5031954;28;20493;-51
2023/09/24 02:42:56;;;;;;;4.20;3.53;;;10.00;99.90;;;;;;5030074;28;20463;-53
2023/09/24 02:45:23;;;;;;;5.13;3.47;;;9.90;99.90;;;;;;5033113;28;20443;-53
2023/09/24 02:47:51;;;;;;;5.77;3.30;;;9.90;99.90;;;;;;5032923;28;20467;-51
2023/09/24 02:50:22;;;;;;;4.93;3.50;;;9.80;99.90;;;;;;5032894;28;20475;-52
2023/09/24 02:52:50;;;;;;;3.40;3.10;;;9.80;99.90;;;;;;5031143;28;20491;-52
2023/09/24 02:55:16;;;;;;;3.60;3.30;;;9.80;99.90;;;;;;5029763;28;20466;-52
2023/09/24 02:57:46;;;;;;;3.60;3.30;;;9.70;99.90;;;;;;5039366;28;20494;-53
2023/09/24 03:00:17;;;;;;;3.93;3.50;;;9.80;99.90;;;;;;5029088;28;20824;-52
2023/09/24 03:02:44;;;;;;;5.93;3.60;;;9.70;99.90;;;;;;5028596;28;20451;-52
2023/09/24 03:05:12;;;;;;;6.10;3.10;;;9.80;99.90;;;;;;5037430;28;20442;-51
2023/09/24 03:07:41;;;;;;;2.87;2.67;;;9.80;99.90;;;;;;5029662;28;20553;-52
2023/09/24 03:10:10;;;;;;;3.53;3.23;;;9.80;99.90;;;;;;5023632;28;20877;-51
2023/09/24 03:12:37;;;;;;;6.47;4.03;;;9.80;99.90;;;;;;5032039;28;20454;-50
2023/09/24 03:15:05;;;;;;;5.63;3.60;;;9.90;99.90;;;;;;5038925;28;20462;-51
2023/09/24 03:17:32;;;;;;;4.30;3.30;;;9.90;99.90;;;;;;5037141;28;21093;-52
2023/09/24 03:19:59;;;;;;;3.67;3.30;;;10.00;99.90;;;;;;5031113;28;20520;-54
2023/09/24 03:22:26;;;;;;;5.67;3.10;;;10.10;99.90;;;;;;5030433;28;20520;-53
2023/09/24 03:24:53;;;;;;;3.63;3.33;;;10.20;99.90;;;;;;5031422;28;20512;-52
2023/09/24 03:27:21;;;;;;;5.13;3.40;;;10.20;99.90;;;;;;5026445;28;20545;-53
2023/09/24 03:29:47;;;;;;;3.97;3.27;;;10.30;99.90;;;;;;5030548;28;20835;-53
2023/09/24 03:32:14;;;;;;;4.60;3.43;;;10.40;99.90;;;;;;5031099;28;20504;-54
2023/09/24 03:34:44;;;;;;;6.17;3.73;;;10.40;99.90;;;;;;5032060;28;20454;-52
2023/09/24 03:37:14;;;;;;;5.77;3.73;;;10.40;99.90;;;;;;5029914;28;20911;-53
2023/09/24 03:39:40;;;;;;;3.83;3.43;;;10.60;99.90;;;;;;5031581;28;20485;-51
2023/09/24 03:42:09;;;;;;;4.10;3.63;;;10.60;99.90;;;;;;5031620;28;20505;-53
2023/09/24 03:44:35;;;;;;;4.57;3.90;;;10.70;99.90;;;;;;5026250;28;20463;-52
2023/09/24 03:47:02;;;;;;;8.77;4.70;;;10.70;99.90;;;;;;5030286;28;20483;-51
2023/09/24 03:49:29;;;;;;;5.90;4.23;;;10.80;99.90;;;;;;5030005;28;20446;-52
2023/09/24 03:51:55;;;;;;;5.67;4.70;;;10.90;99.90;;;;;;5030564;28;20512;-52
2023/09/24 03:54:22;;;;;;;5.63;4.90;;;10.90;99.90;;;;;;5030632;28;20463;-51
2023/09/24 03:56:48;;;;;;;14.43;5.00;;;11.00;99.90;;;;;;5031557;28;20470;-53
2023/09/24 03:59:16;;;;;;;6.30;4.17;;;11.10;99.90;;;;;;5031925;28;20478;-51
2023/09/24 04:01:43;;;;;;;5.23;4.00;;;11.10;99.90;;;;;;5028264;28;20467;-53
2023/09/24 04:04:11;;;;;;;8.03;5.53;;;11.20;99.90;;;;;;5038166;28;20476;-53
2023/09/24 04:06:38;;;;;;;6.00;4.90;;;11.20;99.90;;;;;;5034919;28;20908;-51
2023/09/24 04:09:05;;;;;;;9.83;5.47;;;11.20;99.90;;;;;;5032499;28;20961;-53
2023/09/24 04:11:32;;;;;;;9.43;4.70;;;11.30;99.90;;;;;;5031427;28;20552;-53
2023/09/24 04:13:59;;;;;;;8.07;5.30;;;11.30;99.90;;;;;;5031321;28;20457;-54
2023/09/24 04:16:27;;;;;;;5.67;5.07;;;11.40;99.90;;;;;;5031126;28;20528;-54
2023/09/24 04:18:53;;;;;;;6.80;4.97;;;11.40;99.90;;;;;;5028387;28;20483;-55
2023/09/24 04:21:20;;;;;;;6.80;4.77;;;11.50;99.90;;;;;;5026999;28;20548;-54
2023/09/24 04:23:47;;;;;;;8.87;5.10;;;11.50;99.90;;;;;;5027089;28;21004;-55
2023/09/24 04:26:21;;;;;;;5.20;4.70;;;11.50;99.90;;;;;;5033053;28;20531;-54
2023/09/24 04:28:49;;;;;;;9.87;6.63;;;11.60;99.90;;;;;;5034676;28;20480;-54
2023/09/24 04:31:16;;;;;;;6.83;5.50;;;11.70;99.90;;;;;;5031269;28;20528;-54
2023/09/24 04:33:44;;;;;;;6.83;5.83;;;11.70;99.90;;;;;;5028719;28;20509;-54
2023/09/24 04:36:11;;;;;;;7.23;5.13;;;11.70;99.90;;;;;;5029230;28;20576;-54
2023/09/24 04:38:38;;;;;;;6.30;5.40;;;11.80;99.90;;;;;;5031602;28;20486;-54
2023/09/24 04:41:05;;;;;;;6.40;5.80;;;11.80;99.90;;;;;;5034166;28;20466;-55
2023/09/24 04:43:33;;;;;;;7.23;6.00;;;11.80;99.90;;;;;;5035064;28;20509;-52
2023/09/24 04:46:04;;;;;;;6.13;5.10;;;11.70;99.90;;;;;;5043356;28;20461;-53
2023/09/24 04:48:31;;;;;;;11.20;5.70;;;11.80;99.90;;;;;;5034299;28;21229;-54
2023/09/24 04:50:59;;;;;;;9.10;5.43;;;11.80;99.90;;;;;;5030711;28;20467;-53
2023/09/24 04:53:25;;;;;;;9.80;6.10;;;11.80;99.90;;;;;;5034480;28;20454;-53
2023/09/24 04:55:52;;;;;;;10.53;5.60;;;11.90;99.90;;;;;;5032952;28;20467;-54
2023/09/24 04:58:19;;;;;;;5.40;4.93;;;11.90;99.90;;;;;;5033006;28;20517;-54
2023/09/24 05:00:45;;;;;;;14.63;7.20;;;11.90;99.90;;;;;;5034378;28;20455;-53
2023/09/24 05:03:12;;;;;;;7.30;6.60;;;11.90;99.90;;;;;;5034084;28;20524;-54
2023/09/24 05:05:42;;;;;;;6.47;5.80;;;12.00;99.90;;;;;;5032619;28;20458;-54
2023/09/24 05:08:10;;;;;;;8.10;6.33;;;12.00;99.90;;;;;;5030403;28;21068;-53
2023/09/24 05:10:40;;;;;;;9.33;6.00;;;12.00;99.90;;;;;;5030501;28;20529;-53
2023/09/24 05:13:07;;;;;;;12.03;6.57;;;12.00;99.90;;;;;;5033855;28;20446;-54
2023/09/24 05:15:33;;;;;;;6.17;5.57;;;12.00;99.90;;;;;;5028886;28;20886;-54
2023/09/24 05:18:00;;;;;;;10.03;6.43;;;12.10;99.90;;;;;;5031982;28;20540;-53
2023/09/24 05:20:30;;;;;;;16.00;7.00;;;12.10;99.90;;;;;;5034265;28;20493;-53
2023/09/24 05:22:56;;;;;;;13.77;6.50;;;12.10;99.90;;;;;;5032013;28;20535;-53
2023/09/24 05:25:24;;;;;;;7.30;6.57;;;12.10;99.90;;;;;;5032863;28;20478;-53
2023/09/24 05:27:51;;;;;;;11.00;6.50;;;12.20;99.90;;;;;;5032661;28;20474;-53
2023/09/24 05:30:18;;;;;;;7.90;7.10;;;12.20;99.90;;;;;;5032279;28;20871;-53
2023/09/24 05:32:44;;;;;;;11.33;7.40;;;12.20;99.90;;;;;;5032577;28;20472;-53
2023/09/24 05:35:11;;;;;;;9.50;6.10;;;12.30;99.90;;;;;;5031870;28;21006;-52
2023/09/24 05:37:39;;;;;;;9.07;6.83;;;12.30;99.90;;;;;;5032814;28;20513;-54
2023/09/24 05:40:06;;;;;;;8.87;7.67;;;12.30;99.90;;;;;;5031402;28;20561;-54
2023/09/24 05:42:34;;;;;;;8.47;7.03;;;12.30;99.90;;;;;;5031577;28;20446;-54
2023/09/24 05:45:01;;;;;;;9.47;7.17;;;12.30;99.90;;;;;;5031625;28;20458;-53
2023/09/24 05:47:31;;;;;;;7.60;5.87;;;12.30;99.90;;;;;;5033052;28;21028;-54
2023/09/24 05:49:57;;;;;;;8.33;7.03;;;12.40;99.90;;;;;;5031541;28;20955;-54
2023/09/24 05:52:24;;;;;;;7.20;6.20;;;12.40;99.90;;;;;;5032988;28;20447;-53
2023/09/24 05:54:51;;;;;;;9.33;6.40;;;12.40;99.90;;;;;;5034063;28;20513;-53
2023/09/24 05:57:17;;;;;;;6.87;6.17;;;12.40;99.90;;;;;;5030181;28;20478;-54
2023/09/24 05:59:45;;;;;;;8.53;6.70;;;12.40;99.90;;;;;;5032278;28;20993;-55
2023/09/24 06:02:12;;;;;;;10.30;5.90;;;12.40;99.90;;;;;;5031660;28;20469;-53
2023/09/24 06:04:39;;;;;;;8.93;6.17;;;12.50;99.90;;;;;;5031292;28;20467;-53
2023/09/24 06:07:05;;;;;;;13.43;6.37;;;12.50;99.90;;;;;;5029752;28;20913;-53
2023/09/24 06:09:32;;;;;;;5.60;5.07;;;12.50;99.90;;;;;;5035845;28;20483;-53
2023/09/24 06:11:59;;;;;;;6.33;4.97;;;12.50;99.90;;;;;;5033393;28;20455;-53
2023/09/24 06:14:26;;;;;;;5.90;4.87;;;12.60;99.90;;;;;;5029895;28;20489;-53
2023/09/24 06:16:53;;;;;;;7.80;5.47;;;12.60;99.90;;;;;;5031845;28;20569;-53
2023/09/24 06:19:20;;;;;;;5.60;5.10;;;12.70;99.90;;;;;;5028866;28;20548;-53
2023/09/24 06:21:50;;;;;;;5.03;4.70;;;12.70;99.90;;;;;;5033095;28;20459;-55
2023/09/24 06:24:16;;;;;;;5.53;4.87;;;12.70;99.90;;;;;;5030236;28;20462;-54
2023/09/24 06:26:43;;;;;;;9.57;5.10;;;12.70;99.90;;;;;;5032540;28;20485;-54
2023/09/24 06:29:09;;;;;;;6.40;5.10;;;12.70;99.90;;;;;;5030412;28;20458;-54
2023/09/24 06:31:36;;;;;;;8.17;4.93;;;12.70;99.90;;;;;;5031744;28;20497;-54
2023/09/24 06:34:04;;;;;;;8.47;6.03;;;12.80;99.90;;;;;;5032832;28;20972;-55
2023/09/24 06:36:31;;;;;;;10.57;5.60;;;12.80;99.90;;;;;;5032250;28;20478;-53
2023/09/24 06:38:59;;;;;;;9.83;5.17;;;12.80;99.90;;;;;;5032318;28;20987;-54
2023/09/24 06:41:26;;;;;;;6.50;4.50;;;12.90;99.90;;;;;;5027960;28;20505;-55
2023/09/24 06:43:52;;;;;;;8.77;6.10;;;12.90;99.90;;;;;;5040974;28;20478;-55
2023/09/24 06:46:19;;;;;;;8.33;4.97;;;13.00;82.40;;;;;;5030367;28;20478;-55
2023/09/24 06:48:46;;;;;;;6.73;4.43;;;13.00;86.40;;;;;;5030283;28;20906;-53
2023/09/24 06:51:13;;;;;;;13.50;5.70;;;13.00;86.30;;;;;;5032216;28;20463;-55
2023/09/24 06:53:40;;;;;;;8.33;5.30;;;13.00;21.90;;;;;;5032451;28;20450;-55
2023/09/24 06:56:07;;;;;;;8.73;5.03;;;13.00;21.50;;;;;;5032122;28;20475;-53
2023/09/24 06:58:34;;;;;;;6.00;4.90;;;13.00;23.60;;;;;;5025648;28;20478;-52
2023/09/24 07:01:01;;;;;;;6.20;4.50;;;13.10;24.20;;;;;;5031859;28;20450;-54
2023/09/24 07:03:28;;;;;;;4.73;4.33;;;13.10;25.50;;;;;;5029857;28;20513;-54
2023/09/24 07:05:55;;;;;;;6.87;5.00;;;13.20;26.40;;;;;;5028266;28;20521;-54
2023/09/24 07:08:23;;;;;;;8.20;5.20;;;13.20;28.30;;;;;;5031177;28;20451;-54
2023/09/24 07:11:24;;;;;;;5.93;4.67;;;13.20;33.00;;;;;;5031040;28;20467;-54
2023/09/24 07:13:51;;;;;;;6.90;5.03;;;13.30;34.80;;;;;;5029805;28;20944;-53
2023/09/24 07:16:20;;;;;;;6.13;3.93;;;13.30;33.50;;;;;;5028079;28;20532;-53
2023/09/24 07:18:48;;;;;;;4.83;4.43;;;13.40;32.90;;;;;;5030727;28;20628;-53
2023/09/24 07:21:15;;;;;;;5.17;4.10;;;13.40;36.10;;;;;;5029027;28;20455;-53
2023/09/24 07:23:43;;;;;;;4.03;3.63;;;13.50;39.80;;;;;;5033770;28;20466;-53
2023/09/24 07:26:10;;;;;;;5.00;4.60;;;13.50;43.70;;;;;;5028700;28;20501;-54
2023/09/24 07:28:36;;;;;;;8.53;5.00;;;13.60;43.70;;;;;;5025104;28;20498;-52
2023/09/24 07:31:03;;;;;;;7.97;4.80;;;13.60;49.20;;;;;;5029631;28;20462;-54
2023/09/24 07:33:30;;;;;;;5.90;4.23;;;13.60;53.40;;;;;;5023494;28;20988;-53
2023/09/24 07:35:56;;;;;;;5.70;4.07;;;13.60;50.40;;;;;;5023961;28;20476;-53
2023/09/24 07:38:23;;;;;;;7.53;5.10;;;13.70;56.90;;;;;;5024857;28;20516;-53
2023/09/24 07:40:51;;;;;;;6.30;4.10;;;13.70;62.10;;;;;;5030486;28;20458;-53
2023/09/24 07:43:18;;;;;;;6.03;4.57;;;13.70;62.50;;;;;;5036293;28;20489;-52
2023/09/24 07:45:45;;;;;;;6.27;4.57;;;13.70;61.00;;;;;;5032310;28;21098;-53
2023/09/24 07:48:14;;;;;;;6.40;4.37;;;13.70;62.80;;;;;;5028992;28;20532;-53
2023/09/24 07:50:41;;;;;;;14.60;4.80;;;13.70;63.00;;;;;;5026249;28;20961;-53
2023/09/24 07:53:09;;;;;;;9.23;4.40;;;13.70;62.50;;;;;;5023272;28;20463;-53
2023/09/24 07:55:37;;;;;;;8.40;4.50;;;13.80;63.00;;;;;;5028293;28;20502;-54
2023/09/24 07:58:06;;;;;;;5.53;5.00;;;13.90;64.00;;;;;;5028136;28;20529;-54
2023/09/24 08:00:33;;;;;;;6.07;4.07;;;13.90;67.70;;;;;;5026589;28;20565;-54
2023/09/24 08:03:00;;;;;;;7.90;3.87;;;14.00;72.00;;;;;;5027068;28;20494;-54
2023/09/24 08:05:26;;;;;;;5.70;4.00;;;14.00;72.10;;;;;;5022010;28;20473;-53
2023/09/24 08:07:53;;;;;;;6.23;3.37;;;14.10;79.00;;;;;;5024799;28;20497;-53
2023/09/24 08:10:20;;;;;;;5.40;4.10;;;14.00;82.90;;;;;;5033825;28;20464;-53
2023/09/24 08:12:46;;;;;;;4.87;3.60;;;14.10;82.50;;;;;;5029665;28;20489;-53
2023/09/24 08:15:14;;;;;;;4.37;3.50;;;14.00;82.50;;;;;;5030968;28;20459;-53
2023/09/24 08:17:41;;;;;;;7.23;4.40;;;14.10;81.20;;;;;;5034281;28;20984;-53
2023/09/24 08:20:08;;;;;;;5.33;3.90;;;14.20;80.60;;;;;;5040414;28;21077;-54
2023/09/24 08:22:35;;;;;;;6.57;3.83;;;14.30;99.90;;;;;;5039693;28;20465;-54
2023/09/24 08:25:02;;;;;;;5.57;3.70;;;14.50;95.20;;;;;;5033942;28;20513;-54
2023/09/24 08:27:28;;;;;;;7.73;3.37;;;14.50;96.50;;;;;;5028657;28;20485;-54
2023/09/24 08:29:55;;;;;;;17.37;3.83;;;14.70;99.80;;;;;;5029253;28;20458;-54
2023/09/24 08:32:23;;;;;;;5.23;4.03;;;14.70;99.90;;;;;;5029097;28;20462;-53
2023/09/24 08:34:50;;;;;;;5.27;3.43;;;14.60;99.90;;;;;;5030674;28;20458;-52
2023/09/24 08:37:16;;;;;;;8.70;4.07;;;14.60;99.90;;;;;;5047369;28;20971;-54
2023/09/24 08:39:43;;;;;;;7.17;4.37;;;14.70;99.90;;;;;;5036798;28;20540;-54
2023/09/24 08:42:10;;;;;;;4.70;2.90;;;14.90;99.90;;;;;;5029392;28;21074;-54
2023/09/24 08:44:40;;;;;;;6.53;3.40;;;15.00;99.90;;;;;;5043692;28;20464;-54
2023/09/24 08:47:07;;;;;;;6.43;2.83;;;15.10;99.90;;;;;;5049169;28;20462;-54
2023/09/24 08:49:36;;;;;;;5.03;2.63;;;15.20;99.90;;;;;;5039580;28;21103;-53
2023/09/24 08:52:04;;;;;;;6.43;2.77;;;15.20;99.90;;;;;;5026095;28;20462;-54
2023/09/24 08:54:34;;;;;;;5.43;3.33;;;15.30;99.90;;;;;;5029574;28;20459;-53
2023/09/24 08:57:00;;;;;;;5.33;2.80;;;15.50;99.90;;;;;;5027331;28;20522;-53
2023/09/24 08:59:28;;;;;;;6.90;3.27;;;15.70;99.90;;;;;;5027779;28;20991;-54
2023/09/24 09:01:55;;;;;;;7.10;2.77;;;15.90;99.90;;;;;;5030067;28;21024;-53
2023/09/24 09:04:21;;;;;;;2.60;2.40;;;16.00;99.90;;;;;;5026891;28;20478;-53
2023/09/24 09:06:49;;;;;;;6.13;3.50;;;16.00;99.90;;;;;;5027273;28;20540;-54
2023/09/24 09:09:24;;;;;;;8.73;3.20;;;16.00;99.90;;;;;;5028335;28;20550;-55
2023/09/24 09:11:50;;;;;;;3.83;2.70;;;16.10;1.40;;;;;;5027998;28;20463;-52
2023/09/24 09:14:33;;;;;;;8.47;2.83;;;16.10;99.90;;;;;;5024158;28;20940;-54
2023/09/24 09:16:59;;;;;;;4.10;2.63;;;16.40;99.90;;;;;;5027121;28;20528;-53
2023/09/24 09:19:27;;;;;;;7.63;2.97;;;16.60;99.90;;;;;;5028848;28;21037;-54
2023/09/24 09:21:55;;;;;;;4.20;2.90;;;16.60;99.90;;;;;;5037841;28;20452;-53
2023/09/24 09:24:24;;;;;;;13.33;2.93;;;16.70;99.90;;;;;;5039277;28;20561;-54
2023/09/24 09:26:54;;;;;;;7.83;2.87;;;16.50;99.90;;;;;;5027592;28;20486;-54
2023/09/24 09:29:21;;;;;;;4.83;2.30;;;16.50;99.90;;;;;;5028351;28;20458;-55
2023/09/24 09:31:49;;;;;;;5.60;2.97;;;16.50;99.90;;;;;;5019671;28;20834;-52
2023/09/24 09:34:16;;;;;;;2.70;2.13;;;17.40;99.90;;;;;;5032156;28;20961;-53
2023/09/24 09:36:43;;;;;;;5.87;2.80;;;17.70;99.90;;;;;;5032309;28;20482;-53
2023/09/24 09:39:11;;;;;;;6.33;3.17;;;17.60;99.90;;;;;;5028297;28;20468;-52
2023/09/24 09:41:42;;;;;;;3.43;2.00;;;17.50;99.90;;;;;;5023127;28;20465;-53
2023/09/24 09:44:09;;;;;;;8.40;3.00;;;17.50;88.70;;;;;;5035098;28;20459;-54
2023/09/24 09:46:38;;;;;;;5.23;2.30;;;17.20;99.90;;;;;;5024578;28;21305;-53
2023/09/24 09:49:08;;;;;;;4.17;1.97;;;16.90;99.90;;;;;;5025469;28;20463;-54
2023/09/24 09:51:44;;;;;;;3.60;1.97;;;16.70;99.90;;;;;;5027768;28;20500;-55
2023/09/24 09:54:13;;;;;;;8.67;2.80;;;16.80;99.90;;;;;;5029827;28;20466;-54
2023/09/24 09:56:41;;;;;;;7.20;2.30;;;17.00;99.90;;;;;;5028661;28;20482;-53
2023/09/24 09:59:09;;;;;;;4.30;2.13;;;17.30;99.90;;;;;;5028323;28;20459;-54
2023/09/24 10:01:36;;;;;;;4.73;1.33;;;17.50;30.50;;;;;;5027359;28;20569;-53
2023/09/24 10:04:04;;;;;;;3.30;1.63;;;17.90;46.50;;;;;;5027640;28;20454;-52
2023/09/24 10:06:34;;;;;;;8.33;1.70;;;17.50;34.50;;;;;;5025824;28;20478;-54
2023/09/24 10:09:01;;;;;;;8.00;2.20;;;17.30;22.80;;;;;;5029265;28;20508;-55
2023/09/24 10:11:52;;;;;;;4.90;1.90;;;17.10;22.40;;;;;;5029207;28;20447;-53
2023/09/24 10:14:33;;;;;;;6.50;1.83;;;17.30;81.70;;;;;;5028908;28;20899;-55
2023/09/24 10:17:24;;;;;;;6.47;2.37;;;18.80;81.10;;;;;;5026285;23;20501;-52
2023/09/24 10:19:53;;;;;;;10.63;1.60;;;19.80;99.90;;;;;;5009093;28;20499;-51
2023/09/24 10:22:31;;;;;;;6.33;2.10;;;20.20;99.90;;;;;;5001457;28;21036;-52
2023/09/24 10:24:58;;;;;;;8.63;2.33;;;19.60;99.90;;;;;;5011215;28;20476;-53
2023/09/24 10:27:28;;;;;;;7.60;2.00;;;20.50;99.90;;;;;;5008742;28;20491;-52
2023/09/24 10:30:06;;;;;;;6.27;2.03;;;20.10;99.90;;;;;;5008363;28;21090;-52
2023/09/24 10:32:48;;;;;;;6.63;1.70;;;19.80;99.90;;;;;;5006395;28;20463;-51
2023/09/24 10:35:15;;;;;;;3.80;1.40;;;19.50;99.90;;;;;;5004024;28;21000;-52
2023/09/24 10:38:03;;;;;;;5.53;1.57;;;19.90;99.90;;;;;;5000230;28;20553;-51
2023/09/24 10:40:31;;;;;;;5.23;1.13;;;19.60;99.90;;;;;;5004018;28;20507;-52
2023/09/24 10:43:18;;;;;;;2.43;1.50;;;19.30;99.90;;;;;;5004098;28;20463;-52
2023/09/24 10:45:45;;;;;;;4.83;1.90;;;19.10;99.90;;;;;;5002851;28;20463;-52
2023/09/24 10:48:14;;;;;;;7.87;2.40;;;18.90;99.90;;;;;;5002019;28;22254;-52
2023/09/24 10:50:42;;;;;;;1.53;1.37;;;18.60;99.90;;;;;;5004865;28;20460;-52
2023/09/24 10:53:09;;;;;;;5.80;1.87;;;18.10;99.90;;;;;;5004052;28;20472;-52
2023/09/24 10:55:38;;;;;;;5.40;1.70;;;18.00;99.90;;;;;;5006754;28;20467;-52
2023/09/24 10:58:06;;;;;;;1.87;1.60;;;18.10;99.90;;;;;;5002970;28;20546;-52
2023/09/24 11:00:35;;;;;;;4.37;1.83;;;18.10;99.90;;;;;;4999914;28;21011;-52
2023/09/24 11:03:04;;;;;;;6.37;2.10;;;18.10;99.90;;;;;;5008412;28;20628;-52
2023/09/24 11:05:34;;;;;;;5.50;1.73;;;18.20;99.90;;;;;;5009516;28;20482;-53
2023/09/24 11:08:01;;;;;;;2.67;1.47;;;18.00;99.90;;;;;;5000116;28;20467;-52
2023/09/24 11:10:28;;;;;;;2.57;1.70;;;18.30;99.90;;;;;;5003120;28;20448;-53
2023/09/24 11:12:56;;;;;;;2.80;1.50;;;18.30;99.90;;;;;;5004462;28;20846;-52
2023/09/24 11:15:24;;;;;;;4.60;1.60;;;18.40;99.90;;;;;;5004169;28;20471;-53
2023/09/24 11:17:53;;;;;;;2.67;1.40;;;18.40;99.90;;;;;;5010380;28;20480;-52
2023/09/24 11:20:21;;;;;;;3.53;1.47;;;18.20;99.90;;;;;;5006601;28;21255;-52
2023/09/24 11:22:56;;;;;;;5.97;1.67;;;18.20;99.90;;;;;;5008956;28;20468;-52
2023/09/24 11:25:23;;;;;;;2.73;0.97;;;18.40;99.90;;;;;;5008690;28;20471;-52
2023/09/24 11:27:52;;;;;;;4.70;1.17;;;18.30;99.90;;;;;;5006022;28;20595;-52
2023/09/24 11:30:20;;;;;;;5.13;1.73;;;18.30;99.90;;;;;;4999127;28;20452;-52
2023/09/24 11:32:48;;;;;;;4.53;1.40;;;18.30;99.90;;;;;;5009099;28;20486;-52
2023/09/24 11:35:18;;;;;;;1.77;1.10;;;18.40;99.90;;;;;;5000426;28;20514;-52
2023/09/24 11:37:47;;;;;;;6.60;1.50;;;18.60;99.90;;;;;;5008695;28;20479;-52
2023/09/24 11:40:27;;;;;;;5.47;1.50;;;18.70;99.90;;;;;;5001246;28;20484;-52
2023/09/24 11:42:56;;;;;;;5.50;1.03;;;18.90;99.90;;;;;;5000981;28;20464;-51
2023/09/24 11:45:46;;;;;;;6.43;1.70;;;18.90;99.90;;;;;;5009545;28;20972;-53
2023/09/24 11:48:14;;;;;;;3.53;1.40;;;18.80;99.90;;;;;;5009361;28;20471;-52
2023/09/24 11:50:44;;;;;;;3.57;1.57;;;18.80;99.90;;;;;;5008639;28;20478;-52
2023/09/24 11:53:10;;;;;;;7.70;1.67;;;18.70;99.90;;;;;;5007934;28;20463;-52
2023/09/24 11:55:37;;;;;;;2.63;1.70;;;18.50;99.90;;;;;;5011655;28;20448;-52
2023/09/24 11:58:05;;;;;;;9.43;1.60;;;18.40;99.90;;;;;;5005991;28;20460;-52
2023/09/24 12:00:32;;;;;;;5.30;1.50;;;18.40;99.90;;;;;;5006472;28;20525;-52
2023/09/24 12:02:59;;;;;;;1.70;1.27;;;18.20;99.90;;;;;;5011013;28;20467;-52
2023/09/24 12:05:26;;;;;;;3.77;1.83;;;18.30;99.90;;;;;;5005284;28;20454;-51
2023/09/24 12:07:54;;;;;;;3.77;1.33;;;18.50;99.90;;;;;;5009000;28;20483;-52
2023/09/24 12:10:22;;;;;;;6.73;1.50;;;18.70;99.90;;;;;;5010967;28;20432;-53
2023/09/24 12:12:50;;;;;;;3.17;0.90;;;18.80;99.90;;;;;;5008377;28;20471;-52
2023/09/24 12:15:17;;;;;;;1.90;0.90;;;18.80;99.90;;;;;;5004255;28;20838;-52
2023/09/24 12:17:46;;;;;;;4.37;0.90;;;18.60;99.90;;;;;;5011229;28;20976;-52
2023/09/24 12:20:13;;;;;;;3.73;1.30;;;18.50;99.90;;;;;;5009226;28;21043;-52
2023/09/24 12:22:41;;;;;;;1.63;1.23;;;18.40;99.90;;;;;;5005072;28;20558;-52
2023/09/24 12:25:10;;;;;;;1.50;1.03;;;18.70;99.90;;;;;;5004987;28;20547;-52
2023/09/24 12:27:37;;;;;;;3.07;1.57;;;18.80;99.90;;;;;;5009621;28;20512;-52
2023/09/24 12:30:05;;;;;;;4.50;1.30;;;18.40;99.90;;;;;;5005846;28;20576;-52
2023/09/24 12:32:32;;;;;;;3.37;1.10;;;19.60;99.90;;;;;;5007440;28;20597;-52
2023/09/24 12:34:59;;;;;;;2.73;1.13;;;21.10;99.90;;;;;;5003255;28;20519;-52
2023/09/24 12:37:25;;;;;;;3.67;1.90;;;21.60;99.90;;;;;;5003978;28;20483;-54
2023/09/24 12:39:52;;;;;;;4.50;1.23;;;21.70;99.90;;;;;;5006368;28;20547;-52
2023/09/24 12:42:20;;;;;;;2.23;1.10;;;20.90;99.90;;;;;;5007878;28;20467;-52
2023/09/24 12:44:46;;;;;;;2.47;1.20;;;20.20;99.90;;;;;;5006095;28;20588;-53
2023/09/24 12:47:13;;;;;;;4.50;1.67;;;20.10;99.90;;;;;;5006155;28;20549;-52
2023/09/24 12:49:39;;;;;;;4.90;1.53;;;20.50;99.90;;;;;;5013596;28;20467;-54